sensor_id;sensor_type;location;lat;lon;timestamp;pressure;altitude;pressure_sealevel;temperature;humidity
22582;BME280;47125;48.542;9.052;2022-12-10T00:01:12;94726.59;;;3.48;nan
22582;BME280;47125;48.542;9.052;2022-12-10T00:11:16;94720.25;;;3.49;nan
22582;BME280;47125;48.542;9.052;2022-12-10T00:21:22;94717.81;;;3.36;nan
22582;BME280;47125;48.542;9.052;2022-12-10T00:31:25;94720.59;;;3.41;nan
22582;BME280;47125;48.542;9.052;2022-12-10T00:41:32;94719.81;;;3.52;nan
22582;BME280;47125;48.542;9.052;2022-12-10T00:51:35;94722.66;;;3.39;nan
22582;BME280;47125;48.542;9.052;2022-12-10T01:01:39;94743.72;;;3.57;nan
22582;BME280;47125;48.542;9.052;2022-12-10T01:11:43;94757.38;;;3.65;nan
22582;BME280;47125;48.542;9.052;2022-12-10T01:21:50;94760.97;;;3.71;nan
22582;BME280;47125;48.542;9.052;2022-12-10T01:31:54;94766.69;;;3.68;nan
22582;BME280;47125;48.542;9.052;2022-12-10T01:41:59;94762.66;;;3.65;nan
22582;BME280;47125;48.542;9.052;2022-12-10T01:52:03;94780.38;;;3.47;nan
22582;BME280;47125;48.542;9.052;2022-12-10T02:02:08;94775.75;;;3.60;nan
22582;BME280;47125;48.542;9.052;2022-12-10T02:12:14;94780.00;;;3.43;nan
22582;BME280;47125;48.542;9.052;2022-12-10T02:22:20;94769.16;;;3.51;nan
22582;BME280;47125;48.542;9.052;2022-12-10T02:32:26;94750.09;;;3.49;nan
22582;BME280;47125;48.542;9.052;2022-12-10T02:42:33;94766.09;;;3.54;nan
22582;BME280;47125;48.542;9.052;2022-12-10T02:52:39;94743.31;;;3.42;nan
22582;BME280;47125;48.542;9.052;2022-12-10T03:02:55;94753.84;;;3.71;nan
22582;BME280;47125;48.542;9.052;2022-12-10T03:13:02;94719.13;;;3.45;nan
22582;BME280;47125;48.542;9.052;2022-12-10T03:23:07;94716.19;;;3.34;nan
22582;BME280;47125;48.542;9.052;2022-12-10T03:33:12;94741.88;;;3.57;nan
22582;BME280;47125;48.542;9.052;2022-12-10T03:43:15;94739.44;;;3.56;nan
22582;BME280;47125;48.542;9.052;2022-12-10T03:53:19;94757.81;;;3.51;nan
22582;BME280;47125;48.542;9.052;2022-12-10T04:03:21;94760.25;;;3.64;nan
22582;BME280;47125;48.542;9.052;2022-12-10T04:13:25;94774.34;;;3.58;nan
22582;BME280;47125;48.542;9.052;2022-12-10T04:23:51;94784.31;;;3.56;nan
22582;BME280;47125;48.542;9.052;2022-12-10T04:34:12;94793.25;;;3.55;nan
22582;BME280;47125;48.542;9.052;2022-12-10T04:44:15;94784.63;;;3.77;nan
22582;BME280;47125;48.542;9.052;2022-12-10T04:54:19;94774.09;;;3.29;nan
22582;BME280;47125;48.542;9.052;2022-12-10T05:04:21;94773.22;;;3.36;nan
22582;BME280;47125;48.542;9.052;2022-12-10T05:14:25;94765.44;;;3.41;nan
22582;BME280;47125;48.542;9.052;2022-12-10T05:24:28;94758.72;;;3.26;nan
22582;BME280;47125;48.542;9.052;2022-12-10T05:34:32;94760.69;;;3.31;nan
22582;BME280;47125;48.542;9.052;2022-12-10T05:44:34;94771.44;;;3.48;nan
22582;BME280;47125;48.542;9.052;2022-12-10T05:54:38;94781.41;;;3.46;nan
22582;BME280;47125;48.542;9.052;2022-12-10T06:04:41;94785.81;;;3.33;nan
22582;BME280;47125;48.542;9.052;2022-12-10T06:14:45;94793.28;;;3.37;nan
22582;BME280;47125;48.542;9.052;2022-12-10T06:24:48;94810.78;;;3.49;nan
22582;BME280;47125;48.542;9.052;2022-12-10T06:34:52;94816.88;;;3.31;nan
22582;BME280;47125;48.542;9.052;2022-12-10T06:44:54;94823.63;;;3.27;nan
22582;BME280;47125;48.542;9.052;2022-12-10T06:54:58;94832.97;;;3.30;nan
22582;BME280;47125;48.542;9.052;2022-12-10T07:05:00;94835.66;;;3.23;nan
22582;BME280;47125;48.542;9.052;2022-12-10T07:15:05;94834.09;;;3.34;nan
22582;BME280;47125;48.542;9.052;2022-12-10T07:25:08;94851.94;;;3.39;nan
22582;BME280;47125;48.542;9.052;2022-12-10T07:35:12;94869.53;;;2.84;nan
22582;BME280;47125;48.542;9.052;2022-12-10T07:45:15;94875.50;;;2.97;nan
22582;BME280;47125;48.542;9.052;2022-12-10T07:55:19;94875.09;;;3.18;nan
22582;BME280;47125;48.542;9.052;2022-12-10T08:05:21;94874.56;;;3.28;nan
22582;BME280;47125;48.542;9.052;2022-12-10T08:15:26;94886.94;;;3.27;nan
22582;BME280;47125;48.542;9.052;2022-12-10T08:25:29;94896.84;;;3.32;nan
22582;BME280;47125;48.542;9.052;2022-12-10T08:35:37;94910.34;;;3.42;nan
22582;BME280;47125;48.542;9.052;2022-12-10T08:45:40;94890.59;;;3.08;nan
22582;BME280;47125;48.542;9.052;2022-12-10T08:55:44;94912.69;;;3.50;nan
22582;BME280;47125;48.542;9.052;2022-12-10T09:05:49;94936.31;;;3.63;nan
22582;BME280;47125;48.542;9.052;2022-12-10T09:15:53;94928.81;;;3.60;nan
22582;BME280;47125;48.542;9.052;2022-12-10T09:25:55;94957.31;;;3.52;nan
22582;BME280;47125;48.542;9.052;2022-12-10T09:35:59;94970.25;;;3.78;nan
22582;BME280;47125;48.542;9.052;2022-12-10T09:46:04;94968.06;;;3.75;nan
22582;BME280;47125;48.542;9.052;2022-12-10T09:56:12;94954.91;;;3.86;nan
22582;BME280;47125;48.542;9.052;2022-12-10T10:06:20;94948.81;;;3.86;nan
22582;BME280;47125;48.542;9.052;2022-12-10T10:16:25;94942.22;;;3.95;nan
22582;BME280;47125;48.542;9.052;2022-12-10T10:26:28;94963.72;;;3.99;nan
22582;BME280;47125;48.542;9.052;2022-12-10T10:36:33;94970.22;;;4.14;nan
22582;BME280;47125;48.542;9.052;2022-12-10T10:46:36;94975.66;;;4.19;nan
22582;BME280;47125;48.542;9.052;2022-12-10T10:56:42;94985.63;;;4.35;nan
22582;BME280;47125;48.542;9.052;2022-12-10T11:06:45;94979.69;;;3.85;nan
22582;BME280;47125;48.542;9.052;2022-12-10T11:16:49;94995.94;;;4.37;nan
22582;BME280;47125;48.542;9.052;2022-12-10T11:26:55;94989.94;;;4.30;nan
22582;BME280;47125;48.542;9.052;2022-12-10T11:37:01;94971.09;;;4.26;nan
22582;BME280;47125;48.542;9.052;2022-12-10T11:47:15;94975.34;;;4.27;nan
22582;BME280;47125;48.542;9.052;2022-12-10T11:57:25;94985.78;;;4.22;nan
22582;BME280;47125;48.542;9.052;2022-12-10T12:07:32;94996.25;;;4.29;nan
22582;BME280;47125;48.542;9.052;2022-12-10T12:17:40;95010.81;;;4.20;nan
22582;BME280;47125;48.542;9.052;2022-12-10T12:27:45;95019.16;;;4.17;nan
22582;BME280;47125;48.542;9.052;2022-12-10T12:37:53;95032.38;;;4.35;nan
22582;BME280;47125;48.542;9.052;2022-12-10T12:47:57;95040.88;;;4.37;nan
22582;BME280;47125;48.542;9.052;2022-12-10T12:58:11;95033.38;;;4.52;nan
22582;BME280;47125;48.542;9.052;2022-12-10T13:08:22;95044.63;;;3.75;nan
22582;BME280;47125;48.542;9.052;2022-12-10T13:28:50;95047.72;;;3.90;nan
22582;BME280;47125;48.542;9.052;2022-12-10T13:38:58;95067.50;;;3.81;nan
22582;BME280;47125;48.542;9.052;2022-12-10T13:49:15;95090.91;;;3.53;nan
22582;BME280;47125;48.542;9.052;2022-12-10T13:59:22;95099.34;;;3.37;nan
22582;BME280;47125;48.542;9.052;2022-12-10T14:09:33;95111.34;;;3.32;nan
22582;BME280;47125;48.542;9.052;2022-12-10T14:19:36;95134.91;;;3.27;nan
22582;BME280;47125;48.542;9.052;2022-12-10T14:29:44;95135.34;;;3.24;nan
22582;BME280;47125;48.542;9.052;2022-12-10T14:39:46;95137.69;;;3.08;nan
22582;BME280;47125;48.542;9.052;2022-12-10T14:49:53;95155.75;;;3.04;nan
22582;BME280;47125;48.542;9.052;2022-12-10T14:59:57;95157.63;;;2.97;nan
22582;BME280;47125;48.542;9.052;2022-12-10T15:10:04;95170.81;;;2.97;nan
22582;BME280;47125;48.542;9.052;2022-12-10T15:20:20;95184.84;;;2.91;nan
22582;BME280;47125;48.542;9.052;2022-12-10T15:30:32;95183.50;;;2.69;nan
22582;BME280;47125;48.542;9.052;2022-12-10T15:40:35;95190.03;;;2.60;nan
22582;BME280;47125;48.542;9.052;2022-12-10T15:50:40;95197.34;;;2.51;nan
22582;BME280;47125;48.542;9.052;2022-12-10T16:00:44;95205.91;;;2.07;nan
22582;BME280;47125;48.542;9.052;2022-12-10T16:10:49;95207.88;;;2.51;nan
22582;BME280;47125;48.542;9.052;2022-12-10T16:20:52;95214.38;;;2.42;nan
22582;BME280;47125;48.542;9.052;2022-12-10T16:30:57;95227.31;;;2.57;nan
22582;BME280;47125;48.542;9.052;2022-12-10T16:41:00;95232.44;;;2.39;nan
22582;BME280;47125;48.542;9.052;2022-12-10T16:51:05;95238.09;;;2.55;nan
22582;BME280;47125;48.542;9.052;2022-12-10T17:01:14;95250.03;;;2.45;nan
22582;BME280;47125;48.542;9.052;2022-12-10T17:11:19;95251.72;;;2.06;nan
22582;BME280;47125;48.542;9.052;2022-12-10T17:21:40;95261.22;;;2.07;nan
22582;BME280;47125;48.542;9.052;2022-12-10T17:31:44;95272.16;;;1.91;nan
22582;BME280;47125;48.542;9.052;2022-12-10T17:41:47;95278.03;;;2.06;nan
22582;BME280;47125;48.542;9.052;2022-12-10T17:51:51;95278.44;;;1.97;nan
22582;BME280;47125;48.542;9.052;2022-12-10T18:01:53;95299.91;;;2.07;nan
22582;BME280;47125;48.542;9.052;2022-12-10T18:11:57;95287.53;;;1.88;nan
22582;BME280;47125;48.542;9.052;2022-12-10T18:22:00;95299.50;;;1.97;nan
22582;BME280;47125;48.542;9.052;2022-12-10T18:32:04;95305.13;;;1.74;nan
22582;BME280;47125;48.542;9.052;2022-12-10T18:42:06;95320.13;;;1.87;nan
22582;BME280;47125;48.542;9.052;2022-12-10T18:52:12;95320.13;;;1.87;nan
22582;BME280;47125;48.542;9.052;2022-12-10T19:02:17;95321.16;;;1.86;nan
22582;BME280;47125;48.542;9.052;2022-12-10T19:12:21;95322.16;;;1.91;nan
22582;BME280;47125;48.542;9.052;2022-12-10T19:22:23;95317.94;;;2.03;nan
22582;BME280;47125;48.542;9.052;2022-12-10T19:32:27;95309.78;;;1.79;nan
22582;BME280;47125;48.542;9.052;2022-12-10T19:42:30;95298.47;;;1.85;nan
22582;BME280;47125;48.542;9.052;2022-12-10T19:52:33;95321.13;;;1.79;nan
22582;BME280;47125;48.542;9.052;2022-12-10T20:02:36;95310.38;;;1.81;nan
22582;BME280;47125;48.542;9.052;2022-12-10T20:12:40;95318.09;;;1.95;nan
22582;BME280;47125;48.542;9.052;2022-12-10T20:22:42;95326.44;;;1.92;nan
22582;BME280;47125;48.542;9.052;2022-12-10T20:32:47;95324.59;;;1.93;nan
22582;BME280;47125;48.542;9.052;2022-12-10T20:42:51;95335.75;;;2.01;nan
22582;BME280;47125;48.542;9.052;2022-12-10T20:52:55;95327.22;;;1.93;nan
22582;BME280;47125;48.542;9.052;2022-12-10T21:02:58;95327.63;;;1.77;nan
22582;BME280;47125;48.542;9.052;2022-12-10T21:13:02;95329.06;;;1.92;nan
22582;BME280;47125;48.542;9.052;2022-12-10T21:23:04;95320.94;;;1.74;nan
22582;BME280;47125;48.542;9.052;2022-12-10T21:33:09;95325.34;;;1.60;nan
22582;BME280;47125;48.542;9.052;2022-12-10T21:43:12;95317.66;;;1.72;nan
22582;BME280;47125;48.542;9.052;2022-12-10T21:53:19;95303.28;;;1.75;nan
22582;BME280;47125;48.542;9.052;2022-12-10T22:03:21;95312.38;;;1.59;nan
22582;BME280;47125;48.542;9.052;2022-12-10T22:13:26;95319.47;;;1.72;nan
22582;BME280;47125;48.542;9.052;2022-12-10T22:23:28;95327.91;;;1.41;nan
22582;BME280;47125;48.542;9.052;2022-12-10T22:33:32;95339.75;;;1.17;nan
22582;BME280;47125;48.542;9.052;2022-12-10T22:43:35;95338.19;;;1.29;nan
22582;BME280;47125;48.542;9.052;2022-12-10T22:53:54;95326.78;;;1.16;nan
22582;BME280;47125;48.542;9.052;2022-12-10T23:03:59;95314.25;;;1.11;nan
22582;BME280;47125;48.542;9.052;2022-12-10T23:14:03;95319.94;;;1.21;nan
22582;BME280;47125;48.542;9.052;2022-12-10T23:24:06;95321.63;;;0.94;nan
22582;BME280;47125;48.542;9.052;2022-12-10T23:34:10;95313.19;;;1.05;nan
22582;BME280;47125;48.542;9.052;2022-12-10T23:44:12;95315.50;;;0.87;nan
22582;BME280;47125;48.542;9.052;2022-12-10T23:54:16;95307.69;;;0.60;nan
